createdAt,value
2022-11-28T00:01:31.722Z,2.99
2022-11-28T00:03:58.136Z,2.99
2022-11-28T00:06:25.118Z,2.98
2022-11-28T00:08:51.719Z,2.96
2022-11-28T00:11:18.824Z,2.97
2022-11-28T00:13:45.656Z,2.99
2022-11-28T00:16:16.739Z,2.98
2022-11-28T00:18:43.462Z,2.97
2022-11-28T00:21:11.668Z,2.95
2022-11-28T00:23:38.395Z,2.91
2022-11-28T00:26:24.541Z,2.94
2022-11-28T00:28:51.034Z,2.94
2022-11-28T00:31:22.459Z,2.93
2022-11-28T00:33:49.010Z,2.89
2022-11-28T00:36:15.442Z,2.87
2022-11-28T00:38:42.348Z,2.86
2022-11-28T00:41:10.621Z,2.88
2022-11-28T00:43:37.410Z,2.90
2022-11-28T00:46:04.120Z,2.89
2022-11-28T00:48:31.813Z,2.88
2022-11-28T00:51:05.639Z,2.86
2022-11-28T00:53:32.052Z,2.81
2022-11-28T00:55:58.413Z,2.80
2022-11-28T00:58:24.812Z,2.82
2022-11-28T01:00:51.225Z,2.83
2022-11-28T01:03:17.659Z,2.78
2022-11-28T01:05:44.095Z,2.77
2022-11-28T01:08:10.713Z,2.78
2022-11-28T01:10:42.175Z,2.77
2022-11-28T01:13:09.555Z,2.77
2022-11-28T01:15:36.664Z,2.72
2022-11-28T01:18:03.225Z,2.73
2022-11-28T01:20:29.620Z,2.73
2022-11-28T01:22:56.053Z,2.74
2022-11-28T01:25:22.471Z,2.74
2022-11-28T01:27:48.871Z,2.77
2022-11-28T01:30:15.274Z,2.79
2022-11-28T01:32:41.654Z,2.80
2022-11-28T01:35:08.342Z,2.84
2022-11-28T01:37:34.738Z,2.82
2022-11-28T01:40:01.126Z,2.80
2022-11-28T01:42:27.514Z,2.75
2022-11-28T01:44:53.866Z,2.74
2022-11-28T01:47:28.066Z,2.74
2022-11-28T01:49:55.284Z,2.74
2022-11-28T01:52:22.103Z,2.80
2022-11-28T01:54:50.978Z,2.83
2022-11-28T01:57:19.916Z,2.82
2022-11-28T01:59:51.755Z,2.84
2022-11-28T02:02:20.882Z,2.84
2022-11-28T02:04:47.713Z,2.87
2022-11-28T02:07:14.409Z,2.84
2022-11-28T02:09:40.814Z,2.81
2022-11-28T02:12:11.615Z,2.75
2022-11-28T02:14:58.339Z,2.69
2022-11-28T02:17:30.634Z,2.67
2022-11-28T02:20:16.226Z,2.70
2022-11-28T02:22:54.001Z,2.68
2022-11-28T02:25:39.596Z,2.59
2022-11-28T02:28:24.734Z,2.62
2022-11-28T02:30:51.099Z,2.69
2022-11-28T02:33:30.860Z,2.71
2022-11-28T02:36:03.919Z,2.73
2022-11-28T02:38:33.060Z,2.72
2022-11-28T02:41:06.614Z,2.72
2022-11-28T02:43:37.805Z,2.67
2022-11-28T02:46:19.238Z,2.54
2022-11-28T02:49:03.998Z,2.56
2022-11-28T02:51:39.238Z,2.52
2022-11-28T02:54:07.662Z,2.56
2022-11-28T02:56:34.024Z,2.59
2022-11-28T02:59:00.480Z,2.60
2022-11-28T03:01:33.679Z,2.51
2022-11-28T03:04:00.130Z,2.46
2022-11-28T03:06:30.277Z,2.48
2022-11-28T03:08:56.655Z,2.46
2022-11-28T03:11:26.366Z,2.41
2022-11-28T03:14:31.404Z,2.44
2022-11-28T03:17:03.849Z,2.53
2022-11-28T03:19:30.191Z,2.58
2022-11-28T03:22:02.724Z,2.62
2022-11-28T03:24:49.375Z,2.64
2022-11-28T03:27:24.539Z,2.59
2022-11-28T03:29:55.548Z,2.52
2022-11-28T03:32:24.613Z,2.51
2022-11-28T03:34:54.523Z,2.45
2022-11-28T03:37:26.386Z,2.36
2022-11-28T03:39:59.154Z,2.29
2022-11-28T03:42:28.360Z,2.31
2022-11-28T03:45:04.801Z,2.33
2022-11-28T03:47:34.792Z,2.25
2022-11-28T03:50:03.459Z,2.15
2022-11-28T03:52:32.384Z,2.11
2022-11-28T03:55:00.716Z,2.09
2022-11-28T03:57:32.973Z,2.13
2022-11-28T04:00:01.097Z,2.24
2022-11-28T04:02:27.494Z,2.28
2022-11-28T04:04:58.431Z,2.27
2022-11-28T04:07:39.973Z,2.31
2022-11-28T04:10:09.951Z,2.30
2022-11-28T04:12:58.255Z,2.25
2022-11-28T04:15:24.605Z,2.22
2022-11-28T04:17:58.771Z,2.23
2022-11-28T04:20:38.062Z,2.27
2022-11-28T04:23:10.423Z,2.37
2022-11-28T04:25:38.740Z,2.45
2022-11-28T04:28:07.566Z,2.49
2022-11-28T04:30:34.554Z,2.52
2022-11-28T04:33:02.738Z,2.56
2022-11-28T04:35:32.682Z,2.58
2022-11-28T04:38:00.295Z,2.58
2022-11-28T04:40:27.935Z,2.60
2022-11-28T04:42:56.520Z,2.61
2022-11-28T04:45:26.998Z,2.64
2022-11-28T04:47:54.197Z,2.68
2022-11-28T04:50:23.279Z,2.69
2022-11-28T04:52:54.812Z,2.65
2022-11-28T04:55:35.761Z,2.61
2022-11-28T04:58:11.137Z,2.58
2022-11-28T05:00:38.338Z,2.48
2022-11-28T05:03:05.476Z,2.40
2022-11-28T05:05:32.023Z,2.45
2022-11-28T05:07:59.598Z,2.44
2022-11-28T05:10:26.124Z,2.37
2022-11-28T05:12:52.561Z,2.32
2022-11-28T05:15:19.289Z,2.36
2022-11-28T05:17:46.802Z,2.43
2022-11-28T05:20:13.259Z,2.52
2022-11-28T05:22:39.620Z,2.61
2022-11-28T05:25:06.416Z,2.65
2022-11-28T05:27:32.800Z,2.64
2022-11-28T05:29:59.194Z,2.57
2022-11-28T05:32:25.613Z,2.58
2022-11-28T05:34:52.014Z,2.62
2022-11-28T05:37:18.383Z,2.60
2022-11-28T05:39:45.092Z,2.59
2022-11-28T05:42:11.770Z,2.59
2022-11-28T05:44:38.164Z,2.58
2022-11-28T05:47:04.588Z,2.59
2022-11-28T05:49:30.945Z,2.59
2022-11-28T05:51:57.494Z,2.59
2022-11-28T05:54:23.940Z,2.58
2022-11-28T05:56:50.313Z,2.55
2022-11-28T05:59:16.694Z,2.54
2022-11-28T06:01:43.150Z,2.52
2022-11-28T06:04:09.678Z,2.37
2022-11-28T06:06:36.439Z,2.29
2022-11-28T06:09:03.742Z,2.26
2022-11-28T06:11:31.091Z,2.16
2022-11-28T06:13:57.517Z,2.14
2022-11-28T06:16:25.713Z,2.13
2022-11-28T06:18:53.217Z,1.99
2022-11-28T06:21:19.701Z,1.93
2022-11-28T06:23:46.599Z,1.92
2022-11-28T06:26:14.635Z,1.96
2022-11-28T06:28:41.582Z,2.06
2022-11-28T06:31:12.100Z,2.13
2022-11-28T06:33:38.657Z,2.11
2022-11-28T06:36:05.903Z,2.11
2022-11-28T06:38:32.610Z,2.10
2022-11-28T06:41:00.303Z,2.07
2022-11-28T06:43:26.984Z,2.03
2022-11-28T06:45:53.771Z,1.94
2022-11-28T06:48:20.327Z,1.90
2022-11-28T06:50:46.902Z,1.97
2022-11-28T06:53:13.471Z,2.05
2022-11-28T06:55:40.077Z,2.09
2022-11-28T06:58:06.779Z,2.15
2022-11-28T07:00:33.230Z,2.16
2022-11-28T07:02:59.616Z,2.16
2022-11-28T07:05:28.817Z,2.13
2022-11-28T07:07:55.260Z,2.10
2022-11-28T07:10:21.971Z,2.06
2022-11-28T07:12:52.992Z,2.04
2022-11-28T07:15:19.360Z,2.02
2022-11-28T07:17:45.761Z,2.02
2022-11-28T07:20:12.512Z,1.92
2022-11-28T07:22:38.896Z,1.83
2022-11-28T07:25:05.512Z,1.84
2022-11-28T07:27:31.937Z,1.87
2022-11-28T07:29:58.297Z,1.93
2022-11-28T07:32:24.659Z,1.99
2022-11-28T07:34:51.105Z,1.99
2022-11-28T07:37:17.496Z,1.95
2022-11-28T07:39:44.745Z,1.90
2022-11-28T07:42:12.044Z,1.91
2022-11-28T07:44:38.419Z,1.86
2022-11-28T07:47:04.994Z,1.76
2022-11-28T07:49:31.488Z,1.77
2022-11-28T07:51:58.387Z,1.77
2022-11-28T07:54:24.810Z,1.79
2022-11-28T07:59:37.789Z,1.87
2022-11-28T08:02:04.436Z,1.94
2022-11-28T08:04:30.921Z,1.98
2022-11-28T08:06:57.383Z,2.01
2022-11-28T08:09:23.746Z,2.06
2022-11-28T08:11:52.484Z,2.09
2022-11-28T08:14:19.142Z,2.06
2022-11-28T08:16:45.663Z,2.08
2022-11-28T08:19:12.129Z,2.09
2022-11-28T08:21:38.770Z,2.13
2022-11-28T08:24:05.965Z,2.16
2022-11-28T08:26:32.942Z,2.24
2022-11-28T08:29:00.124Z,2.30
2022-11-28T08:31:27.986Z,2.34
2022-11-28T08:33:55.102Z,2.33
2022-11-28T08:36:21.613Z,2.35
2022-11-28T08:39:03.275Z,2.39
2022-11-28T08:41:30.238Z,2.43
2022-11-28T08:43:56.627Z,2.42
2022-11-28T08:46:23.440Z,2.46
2022-11-28T08:48:51.469Z,2.54
2022-11-28T08:51:19.308Z,2.53
2022-11-28T08:53:48.750Z,2.52
2022-11-28T08:56:15.773Z,2.52
2022-11-28T08:58:42.248Z,2.59
2022-11-28T09:01:19.490Z,2.67
2022-11-28T09:03:47.116Z,2.69
2022-11-28T09:06:14.310Z,2.72
2022-11-28T09:08:43.087Z,2.73
2022-11-28T09:11:10.716Z,2.76
2022-11-28T09:13:37.755Z,2.80
2022-11-28T09:16:04.752Z,2.83
2022-11-28T09:18:31.410Z,2.83
2022-11-28T09:21:01.526Z,2.91
2022-11-28T09:23:28.173Z,2.95
2022-11-28T09:25:55.057Z,3.00
2022-11-28T09:28:21.456Z,3.03
2022-11-28T09:30:47.894Z,3.04
2022-11-28T09:33:14.339Z,3.05
2022-11-28T09:35:40.940Z,3.07
2022-11-28T09:38:07.594Z,3.12
2022-11-28T09:40:36.493Z,3.12
2022-11-28T09:43:03.644Z,3.08
2022-11-28T09:45:30.260Z,3.06
2022-11-28T09:48:00.750Z,3.06
2022-11-28T09:50:33.816Z,3.05
2022-11-28T09:53:06.003Z,3.04
2022-11-28T09:55:40.919Z,2.99
2022-11-28T09:58:14.297Z,2.99
2022-11-28T10:00:55.366Z,2.93
2022-11-28T10:03:31.231Z,2.97
2022-11-28T10:06:02.817Z,2.97
2022-11-28T10:08:35.431Z,2.99
2022-11-28T10:11:09.959Z,3.05
2022-11-28T10:14:07.284Z,3.10
2022-11-28T10:16:34.384Z,3.17
2022-11-28T10:19:04.031Z,3.23
2022-11-28T10:21:30.405Z,3.19
2022-11-28T10:23:59.306Z,3.16
2022-11-28T10:26:25.686Z,3.19
2022-11-28T10:28:53.383Z,3.17
2022-11-28T10:31:36.708Z,3.19
2022-11-28T10:34:06.338Z,3.24
2022-11-28T10:36:51.755Z,3.29
2022-11-28T10:39:18.189Z,3.31
2022-11-28T10:42:11.135Z,3.33
2022-11-28T10:44:56.257Z,3.38
2022-11-28T10:47:41.395Z,3.41
2022-11-28T10:50:10.866Z,3.41
2022-11-28T10:52:44.389Z,3.37
2022-11-28T10:55:13.769Z,3.32
2022-11-28T10:57:43.268Z,3.36
2022-11-28T11:00:09.839Z,3.35
2022-11-28T11:02:47.984Z,3.32
2022-11-28T11:05:16.086Z,3.31
2022-11-28T11:07:53.230Z,3.29
2022-11-28T11:10:22.147Z,3.27
2022-11-28T11:12:50.571Z,3.28
2022-11-28T11:15:19.096Z,3.31
2022-11-28T11:17:45.489Z,3.29
2022-11-28T11:20:25.313Z,3.30
2022-11-28T11:22:59.016Z,3.31
2022-11-28T11:25:26.865Z,3.34
2022-11-28T11:27:54.954Z,3.33
2022-11-28T11:30:26.053Z,3.35
2022-11-28T11:32:54.284Z,3.31
2022-11-28T11:35:23.716Z,3.28
2022-11-28T11:37:50.301Z,3.26
2022-11-28T11:40:27.368Z,3.29
2022-11-28T11:42:58.434Z,3.30
2022-11-28T11:45:24.856Z,3.39
2022-11-28T11:47:51.342Z,3.42
2022-11-28T11:50:18.973Z,3.47
2022-11-28T11:53:00.167Z,3.45
2022-11-28T11:55:28.877Z,3.52
2022-11-28T11:57:56.410Z,3.56
2022-11-28T12:00:26.472Z,3.62
2022-11-28T12:02:55.700Z,3.62
2022-11-28T12:06:12.837Z,3.63
2022-11-28T12:08:35.718Z,3.68
2022-11-28T12:11:13.579Z,3.72
2022-11-28T12:13:40.048Z,3.77
2022-11-28T12:16:25.259Z,3.77
2022-11-28T12:18:59.651Z,3.75
2022-11-28T12:21:40.303Z,3.83
2022-11-28T12:24:12.516Z,3.84
2022-11-28T12:26:38.997Z,3.76
2022-11-28T12:29:09.513Z,3.73
2022-11-28T12:31:48.012Z,3.69
2022-11-28T12:34:33.201Z,3.68
2022-11-28T12:37:05.551Z,3.65
2022-11-28T12:39:32.031Z,3.64
2022-11-28T12:42:13.710Z,3.67
2022-11-28T12:44:43.272Z,3.72
2022-11-28T12:47:29.913Z,3.77
2022-11-28T12:50:00.699Z,3.85
2022-11-28T12:52:47.012Z,3.91
2022-11-28T12:55:19.434Z,3.91
2022-11-28T12:57:45.851Z,4.00
2022-11-28T13:00:23.881Z,4.03
2022-11-28T13:03:09.077Z,4.08
2022-11-28T13:05:36.004Z,4.12
2022-11-28T13:08:20.989Z,4.16
2022-11-28T13:11:06.224Z,4.18
2022-11-28T13:13:52.802Z,4.16
2022-11-28T13:16:27.279Z,4.11
2022-11-28T13:19:03.175Z,4.15
2022-11-28T13:21:39.947Z,4.15
2022-11-28T13:24:12.795Z,4.16
2022-11-28T13:26:45.320Z,4.17
2022-11-28T13:29:17.922Z,4.23
2022-11-28T13:31:49.984Z,4.24
2022-11-28T13:34:17.633Z,4.19
2022-11-28T13:40:00.926Z,4.15
2022-11-28T13:45:32.253Z,4.16
2022-11-28T13:48:00.390Z,4.12
2022-11-28T13:50:29.548Z,4.09
2022-11-28T13:53:10.340Z,4.05
2022-11-28T13:55:36.980Z,4.06
2022-11-28T13:58:15.711Z,4.06
2022-11-28T14:00:42.434Z,4.07
2022-11-28T14:03:19.118Z,4.03
2022-11-28T14:05:46.243Z,3.99
2022-11-28T14:08:26.075Z,3.92
2022-11-28T14:10:52.427Z,3.92
2022-11-28T14:13:26.632Z,3.90
2022-11-28T14:16:11.763Z,3.88
2022-11-28T14:18:57.728Z,3.87
2022-11-28T14:21:43.097Z,3.82
2022-11-28T14:24:25.215Z,3.79
2022-11-28T14:27:00.085Z,3.75
2022-11-28T14:29:39.004Z,3.69
2022-11-28T14:32:29.068Z,3.63
2022-11-28T14:34:52.411Z,3.54
2022-11-28T14:37:21.608Z,3.48
2022-11-28T14:39:48.767Z,3.44
2022-11-28T14:45:31.291Z,3.32
2022-11-28T14:48:07.944Z,3.25
2022-11-28T14:50:37.194Z,3.15
2022-11-28T14:53:26.935Z,3.06
2022-11-28T14:55:53.368Z,3.02
2022-11-28T14:58:19.752Z,2.95
2022-11-28T15:00:54.503Z,2.91
2022-11-28T15:03:20.961Z,2.87
2022-11-28T15:06:01.159Z,2.81
2022-11-28T15:08:32.746Z,2.75
2022-11-28T15:11:16.067Z,2.70
2022-11-28T15:13:42.464Z,2.65
2022-11-28T15:16:13.262Z,2.62
2022-11-28T15:18:44.459Z,2.58
2022-11-28T15:21:13.445Z,2.56
2022-11-28T15:23:39.857Z,2.48
2022-11-28T15:26:06.993Z,2.43
2022-11-28T15:28:35.635Z,2.39
2022-11-28T15:31:04.906Z,2.36
2022-11-28T15:33:32.026Z,2.30
2022-11-28T15:36:10.938Z,2.25
2022-11-28T15:38:37.855Z,2.21
2022-11-28T15:41:04.350Z,2.18
2022-11-28T15:43:31.691Z,2.13
2022-11-28T15:45:59.871Z,2.09
2022-11-28T15:48:47.060Z,2.03
2022-11-28T15:51:24.113Z,1.97
2022-11-28T15:53:50.480Z,1.92
2022-11-28T15:56:16.928Z,1.92
2022-11-28T15:58:44.063Z,1.86
2022-11-28T16:01:21.124Z,1.82
2022-11-28T16:03:59.624Z,1.77
2022-11-28T16:06:31.002Z,1.73
2022-11-28T16:08:59.501Z,1.67
2022-11-28T16:11:27.523Z,1.62
2022-11-28T16:13:56.292Z,1.57
2022-11-28T16:16:25.132Z,1.54
2022-11-28T16:18:59.131Z,1.52
2022-11-28T16:21:28.317Z,1.50
2022-11-28T16:23:54.805Z,1.48
2022-11-28T16:26:23.177Z,1.44
2022-11-28T16:29:11.477Z,1.38
2022-11-28T16:31:38.177Z,1.36
2022-11-28T16:34:04.663Z,1.35
2022-11-28T16:36:36.978Z,1.34
2022-11-28T16:39:12.711Z,1.34
2022-11-28T16:41:40.284Z,1.31
2022-11-28T16:44:11.390Z,1.30
2022-11-28T16:46:48.670Z,1.30
2022-11-28T16:49:30.669Z,1.30
2022-11-28T16:52:17.418Z,1.24
2022-11-28T16:54:44.019Z,1.19
2022-11-28T16:57:11.593Z,1.20
2022-11-28T16:59:38.016Z,1.21
2022-11-28T17:02:12.433Z,1.19
2022-11-28T17:04:38.840Z,1.18
2022-11-28T17:07:09.098Z,1.19
2022-11-28T17:09:36.671Z,1.19
2022-11-28T17:12:04.949Z,1.14
2022-11-28T17:14:31.431Z,1.10
2022-11-28T17:16:57.799Z,1.05
2022-11-28T17:19:24.753Z,1.02
2022-11-28T17:21:56.918Z,1.02
2022-11-28T17:24:24.582Z,1.00
2022-11-28T17:26:52.142Z,0.97
2022-11-28T17:29:19.061Z,0.88
2022-11-28T17:31:47.208Z,0.86
2022-11-28T17:34:18.371Z,0.84
2022-11-28T17:36:45.582Z,0.78
2022-11-28T17:39:12.081Z,0.72
2022-11-28T17:41:39.094Z,0.71
2022-11-28T17:44:05.639Z,0.71
2022-11-28T17:46:32.161Z,0.70
2022-11-28T17:48:59.164Z,0.69
2022-11-28T17:51:26.108Z,0.65
2022-11-28T17:53:52.677Z,0.60
2022-11-28T17:56:19.096Z,0.57
2022-11-28T17:58:45.582Z,0.58
2022-11-28T18:01:12.872Z,0.60
2022-11-28T18:03:39.993Z,0.61
2022-11-28T18:06:06.863Z,0.56
2022-11-28T18:08:33.308Z,0.52
2022-11-28T18:11:04.137Z,0.48
2022-11-28T18:13:30.642Z,0.43
2022-11-28T18:15:57.374Z,0.43
2022-11-28T18:18:23.979Z,0.41
2022-11-28T18:20:50.375Z,0.41
2022-11-28T18:23:16.768Z,0.42
2022-11-28T18:25:43.881Z,0.42
2022-11-28T18:28:15.776Z,0.37
2022-11-28T18:30:46.446Z,0.29
2022-11-28T18:33:13.915Z,0.21
2022-11-28T18:35:40.875Z,0.20
2022-11-28T18:38:07.896Z,0.20
2022-11-28T18:40:35.325Z,0.21
2022-11-28T18:43:02.675Z,0.17
2022-11-28T18:45:29.126Z,0.15
2022-11-28T18:48:00.005Z,0.08
2022-11-28T18:50:26.831Z,0.05
2022-11-28T18:52:53.292Z,0.02
2022-11-28T18:55:20.260Z,-0.01
2022-11-28T18:57:46.656Z,-0.04
2022-11-28T19:00:13.614Z,-0.03
2022-11-28T19:02:40.434Z,-0.09
2022-11-28T19:05:07.063Z,-0.10
2022-11-28T19:07:33.500Z,-0.14
2022-11-28T19:09:59.899Z,-0.18
2022-11-28T19:12:26.287Z,-0.20
2022-11-28T19:14:55.065Z,-0.23
2022-11-28T19:17:25.229Z,-0.28
2022-11-28T19:19:51.917Z,-0.27
2022-11-28T19:22:18.290Z,-0.31
2022-11-28T19:24:44.688Z,-0.31
2022-11-28T19:27:14.467Z,-0.29
2022-11-28T19:29:41.455Z,-0.32
2022-11-28T19:32:08.150Z,-0.34
2022-11-28T19:34:34.719Z,-0.36
2022-11-28T19:37:01.134Z,-0.42
2022-11-28T19:39:28.185Z,-0.43
2022-11-28T19:41:54.948Z,-0.42
2022-11-28T19:44:23.930Z,-0.44
2022-11-28T19:46:50.560Z,-0.44
2022-11-28T19:49:18.646Z,-0.45
2022-11-28T19:51:45.877Z,-0.46
2022-11-28T19:54:12.349Z,-0.51
2022-11-28T19:56:38.803Z,-0.52
2022-11-28T19:59:05.209Z,-0.57
2022-11-28T20:01:31.744Z,-0.58
2022-11-28T20:03:59.455Z,-0.54
2022-11-28T20:06:30.502Z,-0.56
2022-11-28T20:08:58.862Z,-0.53
2022-11-28T20:11:26.709Z,-0.50
2022-11-28T20:14:13.662Z,-0.48
2022-11-28T20:16:40.178Z,-0.50
2022-11-28T20:19:06.709Z,-0.53
2022-11-28T20:21:33.208Z,-0.55
2022-11-28T20:24:05.128Z,-0.60
2022-11-28T20:26:33.823Z,-0.67
2022-11-28T20:29:00.284Z,-0.72
2022-11-28T20:31:28.080Z,-0.71
2022-11-28T20:33:54.762Z,-0.71
2022-11-28T20:36:23.364Z,-0.73
2022-11-28T20:38:50.197Z,-0.73
2022-11-28T20:41:18.048Z,-0.73
2022-11-28T20:43:44.455Z,-0.74
2022-11-28T20:46:12.822Z,-0.76
2022-11-28T20:48:39.700Z,-0.78
2022-11-28T20:51:09.868Z,-0.79
2022-11-28T20:53:37.811Z,-0.82
2022-11-28T20:56:06.513Z,-0.85
2022-11-28T20:58:33.366Z,-0.89
2022-11-28T21:00:59.834Z,-0.94
2022-11-28T21:03:26.383Z,-0.97
2022-11-28T21:05:57.818Z,-0.97
2022-11-28T21:08:30.407Z,-0.99
2022-11-28T21:10:57.110Z,-1.00
2022-11-28T21:13:23.486Z,-1.01
2022-11-28T21:15:49.947Z,-1.01
2022-11-28T21:18:16.478Z,-1.00
2022-11-28T21:20:45.340Z,-0.99
2022-11-28T21:23:12.379Z,-1.00
2022-11-28T21:25:39.532Z,-1.02
2022-11-28T21:28:06.519Z,-0.96
2022-11-28T21:30:33.059Z,-0.96
2022-11-28T21:32:59.601Z,-0.96
2022-11-28T21:35:26.013Z,-1.01
2022-11-28T21:37:52.520Z,-1.02
2022-11-28T21:40:18.930Z,-1.05
2022-11-28T21:42:45.390Z,-1.03
2022-11-28T21:45:11.801Z,-1.04
2022-11-28T21:47:38.192Z,-1.08
2022-11-28T21:50:04.785Z,-1.10
2022-11-28T21:52:31.485Z,-1.13
2022-11-28T21:54:57.909Z,-1.13
2022-11-28T21:57:24.302Z,-1.14
2022-11-28T21:59:50.736Z,-1.15
2022-11-28T22:02:17.454Z,-1.18
2022-11-28T22:04:44.162Z,-1.19
2022-11-28T22:07:10.859Z,-1.21
2022-11-28T22:09:37.398Z,-1.21
2022-11-28T22:12:03.968Z,-1.25
2022-11-28T22:14:36.405Z,-1.29
2022-11-28T22:17:03.150Z,-1.31
2022-11-28T22:19:29.524Z,-1.34
2022-11-28T22:21:56.114Z,-1.34
2022-11-28T22:24:23.121Z,-1.35
2022-11-28T22:26:49.547Z,-1.36
2022-11-28T22:29:15.981Z,-1.33
2022-11-28T22:31:42.453Z,-1.32
2022-11-28T22:34:09.555Z,-1.35
2022-11-28T22:36:35.937Z,-1.35
2022-11-28T22:39:02.862Z,-1.37
2022-11-28T22:41:29.978Z,-1.43
2022-11-28T22:43:57.658Z,-1.45
2022-11-28T22:46:24.060Z,-1.48
2022-11-28T22:48:51.827Z,-1.51
2022-11-28T22:51:20.084Z,-1.54
2022-11-28T22:53:46.576Z,-1.53
2022-11-28T22:56:14.502Z,-1.55
2022-11-28T22:58:42.779Z,-1.54
2022-11-28T23:01:10.648Z,-1.52
2022-11-28T23:03:37.107Z,-1.50
2022-11-28T23:06:04.374Z,-1.51
2022-11-28T23:08:30.823Z,-1.53
2022-11-28T23:10:57.234Z,-1.55
2022-11-28T23:13:23.660Z,-1.56
2022-11-28T23:15:52.905Z,-1.58
2022-11-28T23:18:19.507Z,-1.59
2022-11-28T23:20:45.922Z,-1.60
2022-11-28T23:23:12.291Z,-1.59
2022-11-28T23:25:38.733Z,-1.58
2022-11-28T23:28:05.141Z,-1.59
2022-11-28T23:30:31.569Z,-1.57
2022-11-28T23:32:57.941Z,-1.56
2022-11-28T23:35:24.287Z,-1.57
2022-11-28T23:37:50.674Z,-1.58
2022-11-28T23:40:17.056Z,-1.62
2022-11-28T23:42:43.435Z,-1.65
2022-11-28T23:45:10.099Z,-1.65
2022-11-28T23:47:36.477Z,-1.67
2022-11-28T23:50:03.190Z,-1.68
2022-11-28T23:52:29.883Z,-1.69
2022-11-28T23:54:56.244Z,-1.68
2022-11-28T23:57:22.689Z,-1.69
2022-11-28T23:59:49.089Z,-1.69
